Time;durP1;ratioP1;P1;durP2;ratioP2;P2;SDS_P1;SDS_P2;PMS_P1;PMS_P2;Temp;Humidity;BMP_temperature;BMP_pressure;BME280_temperature;BME280_humidity;BME280_pressure;Samples;Min_cycle;Max_cycle;Signal;HPM_P1;HPM_P2
2023/08/18 00:01:57;;;;;;;66.53;30.90;;;;;;;-147.16;100.00;58666.56;7399878;19;20066;-67
2023/08/18 00:04:25;;;;;;;60.20;28.77;;;;;;;-147.16;100.00;58666.56;7397897;19;20010;-67
2023/08/18 00:06:54;;;;;;;59.63;29.55;;;;;;;-147.16;100.00;58666.56;7397633;19;20014;-66
2023/08/18 00:09:24;;;;;;;62.50;30.55;;;;;;;-147.16;100.00;58666.56;7397617;19;20023;-67
2023/08/18 00:11:52;;;;;;;55.05;29.13;;;;;;;-147.16;100.00;58666.56;7399003;19;20011;-67
2023/08/18 00:14:21;;;;;;;60.65;28.80;;;;;;;-147.16;100.00;58666.56;7397440;19;20407;-67
2023/08/18 00:16:52;;;;;;;46.65;26.70;;;;;;;-147.16;100.00;58666.56;7398730;19;20031;-67
2023/08/18 00:19:21;;;;;;;48.45;25.85;;;;;;;-147.16;100.00;58666.56;7399820;19;20074;-67
2023/08/18 00:21:50;;;;;;;57.75;26.65;;;;;;;-147.16;100.00;58666.56;7397001;19;20026;-67
2023/08/18 00:24:18;;;;;;;47.90;24.95;;;;;;;-147.16;100.00;58666.56;7397717;19;20018;-67
2023/08/18 00:26:47;;;;;;;46.95;24.30;;;;;;;-147.16;100.00;58666.56;7397581;19;20082;-67
2023/08/18 00:29:15;;;;;;;43.05;24.55;;;;;;;-147.16;100.00;58666.56;7397077;19;20026;-67
2023/08/18 00:31:44;;;;;;;38.55;22.13;;;;;;;-147.16;100.00;58666.56;7399483;19;20014;-67
2023/08/18 00:34:15;;;;;;;39.75;21.98;;;;;;;-147.16;100.00;58666.56;7397237;19;20382;-67
2023/08/18 00:36:43;;;;;;;38.28;21.27;;;;;;;-147.16;100.00;58666.56;7398810;19;20015;-67
2023/08/18 00:39:11;;;;;;;36.47;19.98;;;;;;;-147.16;100.00;58666.56;7399088;19;20015;-67
2023/08/18 00:41:40;;;;;;;39.17;21.27;;;;;;;-147.16;100.00;58666.56;7398679;19;20506;-67
2023/08/18 00:44:08;;;;;;;31.45;19.13;;;;;;;-147.16;100.00;58666.56;7397272;19;20031;-67
2023/08/18 00:46:37;;;;;;;37.20;21.10;;;;;;;-147.16;100.00;58666.56;7396515;19;20018;-67
2023/08/18 00:49:09;;;;;;;39.33;20.70;;;;;;;-147.16;100.00;58666.56;7398721;19;20018;-67
2023/08/18 00:51:42;;;;;;;38.67;21.48;;;;;;;-147.16;100.00;58666.56;7398424;19;20409;-67
2023/08/18 00:54:12;;;;;;;40.93;21.30;;;;;;;-147.16;100.00;58666.56;7397122;19;20025;-67
2023/08/18 00:56:41;;;;;;;37.67;20.63;;;;;;;-147.16;100.00;58666.56;7397285;19;20768;-67
2023/08/18 00:59:10;;;;;;;33.90;20.38;;;;;;;-147.16;100.00;58666.56;7395947;19;20007;-67
2023/08/18 01:01:39;;;;;;;36.97;20.63;;;;;;;-147.16;100.00;58666.56;7398365;19;20015;-67
2023/08/18 01:04:08;;;;;;;39.55;22.85;;;;;;;-147.16;100.00;58666.56;7396674;19;20019;-67
2023/08/18 01:06:40;;;;;;;45.70;22.45;;;;;;;-147.16;100.00;58666.56;7396391;19;20010;-67
2023/08/18 01:09:09;;;;;;;39.95;22.77;;;;;;;-147.16;100.00;58666.56;7398497;19;20018;-67
2023/08/18 01:11:48;;;;;;;43.75;23.25;;;;;;;-147.16;100.00;58666.56;7396014;19;20014;-67
2023/08/18 01:14:28;;;;;;;40.55;22.42;;;;;;;-147.16;100.00;58666.56;7396714;19;20366;-67
2023/08/18 01:17:04;;;;;;;42.35;22.17;;;;;;;-147.16;100.00;58666.56;7396527;19;20086;-68
2023/08/18 01:19:33;;;;;;;42.95;22.70;;;;;;;-147.16;100.00;58666.56;7398114;19;20014;-68
2023/08/18 01:22:06;;;;;;;42.80;24.40;;;;;;;-147.16;100.00;58666.56;7393802;19;20014;-67
2023/08/18 01:24:37;;;;;;;44.72;22.35;;;;;;;-147.16;100.00;58666.56;7396001;19;20014;-67
2023/08/18 01:27:05;;;;;;;40.17;23.38;;;;;;;-147.16;100.00;58666.56;7395738;19;20015;-67
2023/08/18 01:29:34;;;;;;;44.90;23.35;;;;;;;-147.16;100.00;58666.56;7397021;19;20023;-67
2023/08/18 01:32:05;;;;;;;31.48;19.40;;;;;;;-147.16;100.00;58666.56;7397055;19;20376;-67
2023/08/18 01:34:42;;;;;;;39.95;22.40;;;;;;;-147.16;100.00;58666.56;7395741;19;20011;-67
2023/08/18 01:37:11;;;;;;;42.50;22.90;;;;;;;-147.16;100.00;58666.56;7397605;19;20018;-67
2023/08/18 01:39:43;;;;;;;41.47;23.45;;;;;;;-147.16;100.00;58666.56;7397020;19;20014;-67
2023/08/18 01:42:12;;;;;;;40.85;22.65;;;;;;;-147.16;100.00;58666.56;7396786;19;20418;-67
2023/08/18 01:44:40;;;;;;;45.13;23.25;;;;;;;-147.16;100.00;58666.56;7395202;19;20108;-67
2023/08/18 01:47:09;;;;;;;44.15;23.05;;;;;;;-147.16;100.00;58666.56;7395007;19;20481;-67
2023/08/18 01:49:37;;;;;;;43.35;23.88;;;;;;;-147.16;100.00;58666.56;7396730;19;20007;-67
2023/08/18 01:52:06;;;;;;;43.58;23.48;;;;;;;-147.16;100.00;58666.56;7396340;19;20419;-68
2023/08/18 01:54:35;;;;;;;41.17;23.85;;;;;;;-147.16;100.00;58666.56;7394664;19;20018;-68
2023/08/18 01:57:06;;;;;;;40.85;22.88;;;;;;;-147.16;100.00;58666.56;7396575;19;20007;-67
2023/08/18 01:59:34;;;;;;;46.20;23.73;;;;;;;-147.16;100.00;58666.56;7396913;19;20014;-67
2023/08/18 02:02:03;;;;;;;37.78;22.52;;;;;;;-147.16;100.00;58666.56;7396253;19;20027;-67
2023/08/18 02:04:31;;;;;;;44.42;22.83;;;;;;;-147.16;100.00;58666.56;7394671;19;20022;-67
2023/08/18 02:07:00;;;;;;;41.35;21.45;;;;;;;-147.16;100.00;58666.56;7394909;19;20018;-67
2023/08/18 02:09:28;;;;;;;43.70;22.30;;;;;;;-147.16;100.00;58666.56;7395598;19;20031;-67
2023/08/18 02:11:57;;;;;;;42.00;23.20;;;;;;;-147.16;100.00;58666.56;7396130;19;20552;-68
2023/08/18 02:14:28;;;;;;;46.60;23.30;;;;;;;-147.16;100.00;58666.56;7396736;19;20083;-67
2023/08/18 02:16:56;;;;;;;38.63;21.58;;;;;;;-147.16;100.00;58666.56;7397206;19;20024;-68
2023/08/18 02:19:25;;;;;;;45.38;23.27;;;;;;;-147.16;100.00;58666.56;7395028;19;20023;-67
2023/08/18 02:21:54;;;;;;;45.50;24.70;;;;;;;-147.16;100.00;58666.56;7393956;19;20078;-67
2023/08/18 02:24:22;;;;;;;40.78;23.13;;;;;;;-147.16;100.00;58666.56;7395733;19;20011;-68
2023/08/18 02:26:51;;;;;;;42.25;23.13;;;;;;;-147.16;100.00;58666.56;7394780;19;20425;-67
2023/08/18 02:29:19;;;;;;;45.03;22.88;;;;;;;-147.16;100.00;58666.56;7395434;19;20018;-67
2023/08/18 02:31:52;;;;;;;39.05;23.20;;;;;;;-147.16;100.00;58666.56;7395483;19;20019;-67
2023/08/18 02:34:21;;;;;;;43.38;23.83;;;;;;;-147.16;100.00;58666.56;7393397;19;20011;-67
2023/08/18 02:36:49;;;;;;;42.38;23.70;;;;;;;-147.16;100.00;58666.56;7394738;19;20494;-67
2023/08/18 02:39:18;;;;;;;48.50;24.17;;;;;;;-147.16;100.00;58666.56;7394988;19;20074;-67
2023/08/18 02:41:47;;;;;;;46.65;23.67;;;;;;;-147.16;100.00;58666.56;7395029;19;20078;-67
2023/08/18 02:44:17;;;;;;;43.25;23.38;;;;;;;-147.16;100.00;58666.56;7393347;19;20027;-67
2023/08/18 02:46:45;;;;;;;48.28;24.20;;;;;;;-147.16;100.00;58666.56;7393276;19;20037;-67
2023/08/18 02:49:16;;;;;;;39.22;22.90;;;;;;;-147.16;100.00;58666.56;7393230;19;20019;-67
2023/08/18 02:51:45;;;;;;;49.15;24.50;;;;;;;-147.16;100.00;58666.56;7395410;19;20011;-67
2023/08/18 02:54:13;;;;;;;44.28;25.20;;;;;;;-147.16;100.00;58666.56;7393097;19;20007;-67
2023/08/18 02:56:42;;;;;;;49.22;26.40;;;;;;;-147.16;100.00;58666.56;7394821;19;20026;-67
2023/08/18 02:59:10;;;;;;;46.88;25.48;;;;;;;-147.16;100.00;58666.56;7394731;19;20011;-67
2023/08/18 03:01:38;;;;;;;46.35;27.10;;;;;;;-147.16;100.00;58666.56;7392809;19;20119;-67
2023/08/18 03:04:07;;;;;;;47.33;25.20;;;;;;;-147.16;100.00;58666.56;7393234;19;20015;-67
2023/08/18 03:06:38;;;;;;;49.72;26.23;;;;;;;-147.16;100.00;58666.56;7393621;19;20031;-67
2023/08/18 03:09:07;;;;;;;48.28;26.23;;;;;;;-147.16;100.00;58666.56;7394436;19;20015;-67
2023/08/18 03:11:36;;;;;;;46.85;25.63;;;;;;;-147.16;100.00;58666.56;7393013;19;20014;-67
2023/08/18 03:14:05;;;;;;;46.03;25.17;;;;;;;-147.16;100.00;58666.56;7393037;19;20019;-67
2023/08/18 03:16:33;;;;;;;53.22;25.65;;;;;;;-147.16;100.00;58666.56;7393231;19;20021;-67
2023/08/18 03:19:02;;;;;;;47.80;26.73;;;;;;;-147.16;100.00;58666.56;7394706;19;20031;-67
2023/08/18 03:21:30;;;;;;;50.33;26.65;;;;;;;-147.16;100.00;58666.56;7394241;19;20015;-66
2023/08/18 03:24:01;;;;;;;48.03;24.98;;;;;;;-147.16;100.00;58666.56;7392467;19;20388;-67
2023/08/18 03:26:30;;;;;;;49.25;25.88;;;;;;;-147.16;100.00;58666.56;7393144;19;20549;-67
2023/08/18 03:28:58;;;;;;;53.42;27.45;;;;;;;-147.16;100.00;58666.56;7393953;19;20077;-67
2023/08/18 03:31:27;;;;;;;50.17;27.33;;;;;;;-147.16;100.00;58666.56;7393951;19;20015;-67
2023/08/18 03:33:55;;;;;;;48.20;24.83;;;;;;;-147.16;100.00;58666.56;7391630;19;20015;-67
2023/08/18 03:36:24;;;;;;;52.10;26.95;;;;;;;-147.16;100.00;58666.56;7393526;19;20447;-67
2023/08/18 03:38:52;;;;;;;56.63;28.80;;;;;;;-147.16;100.00;58666.56;7393502;19;20078;-67
2023/08/18 03:41:24;;;;;;;53.78;27.95;;;;;;;-147.16;100.00;58666.56;7391262;19;20074;-67
2023/08/18 03:43:52;;;;;;;52.05;28.77;;;;;;;-147.16;100.00;58666.56;7392354;19;20018;-67
2023/08/18 03:46:25;;;;;;;51.63;27.88;;;;;;;-147.16;100.00;58666.56;7397250;19;20015;-67
2023/08/18 03:48:54;;;;;;;56.22;28.20;;;;;;;-147.16;100.00;58666.56;7401177;19;20010;-67
2023/08/18 03:51:22;;;;;;;57.55;28.67;;;;;;;-147.16;100.00;58666.56;7401767;19;20018;-66
2023/08/18 03:53:50;;;;;;;55.70;30.08;;;;;;;-147.16;100.00;58666.56;7399355;19;20073;-67
2023/08/18 03:56:19;;;;;;;49.50;27.55;;;;;;;-147.16;100.00;58666.56;7400568;19;20082;-67
2023/08/18 03:58:50;;;;;;;55.30;29.48;;;;;;;-147.16;100.00;58666.56;7400556;19;20035;-67
2023/08/18 04:01:19;;;;;;;53.00;28.90;;;;;;;-147.16;100.00;58666.56;7400439;19;20074;-67
2023/08/18 04:03:47;;;;;;;55.65;30.25;;;;;;;-147.16;100.00;58666.56;7397986;19;20018;-67
2023/08/18 04:06:16;;;;;;;51.75;29.35;;;;;;;-147.16;100.00;58666.56;7399907;19;20010;-67
2023/08/18 04:08:46;;;;;;;55.50;29.38;;;;;;;-147.16;100.00;58666.56;7397510;19;20006;-67
2023/08/18 04:11:15;;;;;;;59.15;30.63;;;;;;;-147.16;100.00;58666.56;7400221;19;20366;-67
2023/08/18 04:13:44;;;;;;;50.00;28.17;;;;;;;-147.16;100.00;58666.56;7398957;19;20074;-67
2023/08/18 04:16:15;;;;;;;60.60;30.63;;;;;;;-147.16;100.00;58666.56;7399962;19;20074;-67
2023/08/18 04:18:43;;;;;;;56.25;30.05;;;;;;;-147.16;100.00;58666.56;7397347;19;20014;-67
2023/08/18 04:21:12;;;;;;;56.97;29.83;;;;;;;-147.16;100.00;58666.56;7399706;19;20477;-67
2023/08/18 04:23:40;;;;;;;67.85;32.03;;;;;;;-147.16;100.00;58666.56;7398416;19;20070;-67
2023/08/18 04:26:12;;;;;;;64.45;31.75;;;;;;;-147.16;100.00;58666.56;7400623;19;20090;-67
2023/08/18 04:28:40;;;;;;;56.20;30.27;;;;;;;-147.16;100.00;58666.56;7402258;19;20070;-66
2023/08/18 04:31:09;;;;;;;58.75;30.92;;;;;;;-147.16;100.00;58666.56;7400585;19;20018;-67
2023/08/18 04:33:40;;;;;;;102.15;57.03;;;;;;;-147.16;100.00;58666.56;7398569;19;20019;-67
2023/08/18 04:36:09;;;;;;;67.85;35.50;;;;;;;-147.16;100.00;58666.56;7401161;19;20019;-66
2023/08/18 04:38:37;;;;;;;57.05;31.85;;;;;;;-147.16;100.00;58666.56;7398405;19;20019;-67
2023/08/18 04:41:06;;;;;;;63.75;33.00;;;;;;;-147.16;100.00;58666.56;7398120;19;20545;-67
2023/08/18 04:43:36;;;;;;;65.57;32.05;;;;;;;-147.16;100.00;58666.56;7397492;19;20011;-67
2023/08/18 04:46:04;;;;;;;54.85;30.48;;;;;;;-147.16;100.00;58666.56;7395827;19;20519;-67
2023/08/18 04:48:33;;;;;;;62.17;31.45;;;;;;;-147.16;100.00;58666.56;7396302;19;20074;-67
2023/08/18 04:51:11;;;;;;;62.75;33.67;;;;;;;-147.16;100.00;58666.56;7398374;19;20477;-66
2023/08/18 04:53:40;;;;;;;61.25;31.13;;;;;;;-147.16;100.00;58666.56;7396308;19;20091;-66
2023/08/18 04:56:09;;;;;;;59.80;32.13;;;;;;;-147.16;100.00;58666.56;7397201;19;20344;-67
2023/08/18 04:58:38;;;;;;;59.80;31.10;;;;;;;-147.16;100.00;58666.56;7395718;19;20486;-67
2023/08/18 05:01:07;;;;;;;88.15;53.33;;;;;;;-147.16;100.00;58666.56;7397683;19;20031;-67
2023/08/18 05:03:35;;;;;;;78.10;43.50;;;;;;;-147.16;100.00;58666.56;7395510;19;20027;-67
2023/08/18 05:06:13;;;;;;;70.57;36.13;;;;;;;-147.16;100.00;58666.56;7397822;19;20013;-68
2023/08/18 05:08:42;;;;;;;74.15;36.75;;;;;;;-147.16;100.00;58666.56;7396327;19;20038;-67
2023/08/18 05:11:11;;;;;;;80.32;40.63;;;;;;;-147.16;100.00;58666.56;7396001;19;20024;-67
2023/08/18 05:13:43;;;;;;;70.03;35.97;;;;;;;-147.16;100.00;58666.56;7394764;19;20427;-67
2023/08/18 05:16:11;;;;;;;72.32;37.47;;;;;;;-147.16;100.00;58666.56;7397916;19;20074;-67
2023/08/18 05:18:40;;;;;;;70.03;36.28;;;;;;;-147.16;100.00;58666.56;7396230;19;20085;-67
2023/08/18 05:21:11;;;;;;;74.05;36.80;;;;;;;-147.16;100.00;58666.56;7397486;19;20022;-67
2023/08/18 05:23:40;;;;;;;74.70;38.85;;;;;;;-147.16;100.00;58666.56;7395887;19;20518;-67
2023/08/18 05:26:15;;;;;;;69.45;37.75;;;;;;;-147.16;100.00;58666.56;7395614;19;20070;-64
2023/08/18 05:28:44;;;;;;;70.95;37.75;;;;;;;-147.16;100.00;58666.56;7395462;19;20015;-65
2023/08/18 05:31:13;;;;;;;73.13;39.95;;;;;;;-147.16;100.00;58666.56;7396203;19;20010;-64
2023/08/18 05:33:42;;;;;;;73.18;39.33;;;;;;;-147.16;100.00;58666.56;7395410;19;20481;-64
2023/08/18 05:36:13;;;;;;;58.92;35.85;;;;;;;-147.16;100.00;58666.56;7396733;19;20090;-64
2023/08/18 05:38:41;;;;;;;63.78;36.10;;;;;;;-147.16;100.00;58666.56;7396697;19;20006;-65
2023/08/18 05:41:14;;;;;;;64.90;36.47;;;;;;;-147.16;100.00;58666.56;7396694;19;20018;-65
2023/08/18 05:43:43;;;;;;;62.05;36.47;;;;;;;-147.16;100.00;58666.56;7395689;19;20018;-64
2023/08/18 05:46:11;;;;;;;63.55;37.38;;;;;;;-147.16;100.00;58666.56;7396716;19;20018;-64
2023/08/18 05:48:40;;;;;;;66.75;38.53;;;;;;;-147.16;100.00;58666.56;7394659;19;20070;-63
2023/08/18 05:51:08;;;;;;;62.20;38.90;;;;;;;-147.16;100.00;58666.56;7395894;19;20485;-63
2023/08/18 05:53:39;;;;;;;60.38;38.03;;;;;;;-147.16;100.00;58666.56;7395565;19;20010;-64
2023/08/18 05:56:08;;;;;;;63.05;37.47;;;;;;;-147.16;100.00;58666.56;7396671;19;20081;-64
2023/08/18 05:58:36;;;;;;;54.55;36.33;;;;;;;-147.16;100.00;58666.56;7394242;19;20427;-65
2023/08/18 06:01:06;;;;;;;65.45;39.53;;;;;;;-147.16;100.00;58666.56;7395580;19;20411;-65
2023/08/18 06:03:34;;;;;;;48.22;34.33;;;;;;;-147.16;100.00;58666.56;7394790;19;20015;-64
2023/08/18 06:06:03;;;;;;;55.63;35.85;;;;;;;-147.16;100.00;58666.56;7393849;19;20023;-64
2023/08/18 06:08:31;;;;;;;58.00;36.38;;;;;;;-147.16;100.00;58666.56;7392592;19;20007;-65
2023/08/18 06:11:03;;;;;;;53.15;36.53;;;;;;;-147.16;100.00;58666.56;7394189;19;20010;-65
2023/08/18 06:13:31;;;;;;;53.38;36.75;;;;;;;-147.16;100.00;58666.56;7395609;19;20037;-65
2023/08/18 06:15:59;;;;;;;55.97;36.55;;;;;;;-147.16;100.00;58666.56;7394139;19;20031;-64
2023/08/18 06:18:28;;;;;;;51.28;35.03;;;;;;;-147.16;100.00;58666.56;7393531;19;20028;-65
2023/08/18 06:20:56;;;;;;;48.17;33.95;;;;;;;-147.16;100.00;58666.56;7395035;19;20367;-62
2023/08/18 06:23:25;;;;;;;49.33;33.35;;;;;;;-147.16;100.00;58666.56;7394823;19;20077;-65
2023/08/18 06:25:53;;;;;;;37.65;30.77;;;;;;;-147.16;100.00;58666.56;7395426;19;20031;-65
2023/08/18 06:28:25;;;;;;;43.10;31.88;;;;;;;-147.16;100.00;58666.56;7394960;19;20368;-64
2023/08/18 06:30:53;;;;;;;40.30;30.63;;;;;;;-147.16;100.00;58666.56;7395291;19;20025;-64
2023/08/18 06:33:22;;;;;;;38.30;30.33;;;;;;;-147.16;100.00;58666.56;7393925;19;20494;-65
2023/08/18 06:35:51;;;;;;;37.97;29.80;;;;;;;-147.16;100.00;58666.56;7394885;19;20478;-65
2023/08/18 06:38:20;;;;;;;37.47;29.52;;;;;;;-147.16;100.00;58666.56;7393878;19;20019;-65
2023/08/18 06:40:48;;;;;;;33.75;28.35;;;;;;;-147.16;100.00;58666.56;7394878;19;20027;-65
2023/08/18 06:43:17;;;;;;;33.85;28.52;;;;;;;-147.16;100.00;58666.56;7393798;19;20038;-65
2023/08/18 06:45:48;;;;;;;36.83;30.50;;;;;;;-147.16;100.00;58666.56;7394591;19;20010;-65
2023/08/18 06:48:16;;;;;;;35.25;31.42;;;;;;;-147.16;100.00;58666.56;7394511;19;20007;-64
2023/08/18 06:50:45;;;;;;;36.60;30.25;;;;;;;-147.16;100.00;58666.56;7395000;19;20075;-64
2023/08/18 06:53:13;;;;;;;37.45;29.25;;;;;;;-147.16;100.00;58666.56;7394262;19;20078;-65
2023/08/18 06:55:42;;;;;;;32.72;29.10;;;;;;;-147.16;100.00;58666.56;7394563;19;20023;-64
2023/08/18 06:58:12;;;;;;;27.70;24.88;;;;;;;-147.16;100.00;58666.56;7393505;19;20038;-64
2023/08/18 07:00:40;;;;;;;31.08;25.70;;;;;;;-147.16;100.00;58666.56;7395202;19;20041;-64
2023/08/18 07:03:11;;;;;;;30.02;25.05;;;;;;;-147.16;100.00;58666.56;7393941;19;20029;-65
2023/08/18 07:05:40;;;;;;;26.83;24.02;;;;;;;-147.16;100.00;58666.56;7393757;19;20027;-64
2023/08/18 07:08:08;;;;;;;27.25;24.52;;;;;;;-147.16;100.00;58666.56;7393895;19;20473;-65
2023/08/18 07:10:37;;;;;;;25.60;22.90;;;;;;;-147.16;100.00;58666.56;7391933;19;20011;-64
2023/08/18 07:13:06;;;;;;;26.85;23.98;;;;;;;-147.16;100.00;58666.56;7393503;19;20022;-65
2023/08/18 07:15:34;;;;;;;28.42;24.42;;;;;;;-147.16;100.00;58666.56;7394594;19;20086;-64
2023/08/18 07:18:03;;;;;;;24.10;21.50;;;;;;;-147.16;100.00;58666.56;7392504;19;20010;-64
2023/08/18 07:20:34;;;;;;;22.90;20.58;;;;;;;-147.16;100.00;58666.56;7396349;19;20027;-64
2023/08/18 07:23:03;;;;;;;23.63;21.30;;;;;;;-147.16;100.00;58666.56;7401194;19;20098;-64
2023/08/18 07:25:32;;;;;;;21.88;19.15;;;;;;;-147.16;100.00;58666.56;7401346;19;20014;-64
2023/08/18 07:28:00;;;;;;;20.65;18.60;;;;;;;-147.16;100.00;58666.56;7400666;19;20007;-64
2023/08/18 07:30:29;;;;;;;17.90;16.17;;;;;;;-147.16;100.00;58666.56;7398125;19;20014;-64
2023/08/18 07:32:57;;;;;;;17.23;15.57;;;;;;;-147.16;100.00;58666.56;7400130;19;20031;-64
2023/08/18 07:35:26;;;;;;;18.77;16.83;;;;;;;-147.16;100.00;58666.56;7400758;19;20380;-64
2023/08/18 07:37:57;;;;;;;16.90;15.40;;;;;;;-147.16;100.00;58666.56;7400072;19;20075;-65
2023/08/18 07:40:27;;;;;;;17.92;16.05;;;;;;;-147.16;100.00;58666.56;7398865;19;20066;-65
2023/08/18 07:42:56;;;;;;;16.55;14.98;;;;;;;-147.16;100.00;58666.56;7400217;19;20429;-67
2023/08/18 07:45:26;;;;;;;15.73;14.23;;;;;;;-147.16;100.00;58666.56;7397594;19;20023;-63
2023/08/18 07:47:55;;;;;;;15.05;13.65;;;;;;;-147.16;100.00;58666.56;7400058;19;20033;-65
2023/08/18 07:50:23;;;;;;;17.05;13.00;;;;;;;-147.16;100.00;58666.56;7400104;19;20010;-65
2023/08/18 07:52:52;;;;;;;14.07;12.70;;;;;;;-147.16;100.00;58666.56;7399522;19;20019;-64
2023/08/18 07:55:25;;;;;;;13.43;12.05;;;;;;;-147.16;100.00;58666.56;7399788;19;20019;-64
2023/08/18 07:57:53;;;;;;;12.48;11.35;;;;;;;-147.16;100.00;58666.56;7399636;19;20031;-65
2023/08/18 08:00:22;;;;;;;14.20;11.07;;;;;;;-147.16;100.00;58666.56;7399895;19;20039;-65
2023/08/18 08:02:51;;;;;;;13.25;11.73;;;;;;;-147.16;100.00;58666.56;7399238;19;20011;-65
2023/08/18 08:05:20;;;;;;;12.60;11.50;;;;;;;-147.16;100.00;58666.56;7399923;19;20018;-65
2023/08/18 08:07:49;;;;;;;13.73;11.98;;;;;;;-147.16;100.00;58666.56;7399127;19;20010;-65
2023/08/18 08:10:18;;;;;;;12.38;11.07;;;;;;;-147.16;100.00;58666.56;7398919;19;20015;-65
2023/08/18 08:12:49;;;;;;;11.18;10.18;;;;;;;-147.16;100.00;58666.56;7398314;19;20075;-65
2023/08/18 08:15:18;;;;;;;10.93;9.82;;;;;;;-147.16;100.00;58666.56;7399691;19;20021;-65
2023/08/18 08:17:47;;;;;;;11.32;10.32;;;;;;;-147.16;100.00;58666.56;7399094;19;20027;-67
2023/08/18 08:20:17;;;;;;;11.07;10.05;;;;;;;-147.16;100.00;58666.56;7398710;19;20018;-66
2023/08/18 08:22:46;;;;;;;9.70;8.80;;;;;;;-147.16;100.00;58666.56;7398115;19;20074;-66
2023/08/18 08:25:15;;;;;;;11.65;9.57;;;;;;;-147.16;100.00;58666.56;7398796;19;20029;-66
2023/08/18 08:27:44;;;;;;;12.15;10.82;;;;;;;-147.16;100.00;58666.56;7398833;19;20010;-66
2023/08/18 08:30:16;;;;;;;11.23;10.13;;;;;;;-147.16;100.00;58666.56;7398336;19;20054;-65
2023/08/18 08:32:45;;;;;;;9.85;8.95;;;;;;;-147.16;100.00;58666.56;7398704;19;20022;-65
2023/08/18 08:35:13;;;;;;;10.30;9.40;;;;;;;-147.16;100.00;58666.56;7395764;19;20485;-65
2023/08/18 08:37:42;;;;;;;10.45;9.40;;;;;;;-147.16;100.00;58666.56;7397583;19;20034;-65
2023/08/18 08:40:18;;;;;;;10.18;9.18;;;;;;;-147.16;100.00;58666.56;7398107;19;20006;-66
2023/08/18 08:42:48;;;;;;;10.52;8.82;;;;;;;-147.16;100.00;58666.56;7396843;19;20017;-66
2023/08/18 08:45:19;;;;;;;8.65;7.68;;;;;;;-147.16;100.00;58666.56;7396058;19;20007;-66
2023/08/18 08:47:49;;;;;;;8.40;7.60;;;;;;;-147.16;100.00;58666.56;7398519;19;20078;-65
2023/08/18 08:50:19;;;;;;;8.27;7.60;;;;;;;-147.16;100.00;58666.56;7397344;19;20002;-65
2023/08/18 08:52:53;;;;;;;9.35;8.32;;;;;;;-147.16;100.00;58666.56;7398354;19;20039;-68
2023/08/18 08:55:26;;;;;;;8.07;7.28;;;;;;;-147.16;100.00;58666.56;7395911;19;20023;-67
2023/08/18 08:57:54;;;;;;;10.88;9.57;;;;;;;-147.16;100.00;58666.56;7397547;19;20014;-66
2023/08/18 09:00:26;;;;;;;8.55;7.75;;;;;;;-147.16;100.00;58666.56;7397398;19;20027;-67
2023/08/18 09:02:55;;;;;;;11.82;9.90;;;;;;;-147.16;100.00;58666.56;7397725;19;20035;-66
2023/08/18 09:05:28;;;;;;;10.57;9.25;;;;;;;-147.16;100.00;58666.56;7397549;19;20074;-66
2023/08/18 09:07:56;;;;;;;9.13;8.20;;;;;;;-147.16;100.00;58666.56;7397154;19;20037;-67
2023/08/18 09:10:25;;;;;;;12.40;9.98;;;;;;;-147.16;100.00;58666.56;7396547;19;20018;-67
2023/08/18 09:12:54;;;;;;;10.57;7.68;;;;;;;-147.16;100.00;58666.56;7395785;19;20537;-67
2023/08/18 09:15:27;;;;;;;10.45;8.75;;;;;;;-147.16;100.00;58666.56;7397021;19;20498;-65
2023/08/18 09:17:55;;;;;;;10.13;8.13;;;;;;;-147.16;100.00;58666.56;7395650;19;20498;-69
2023/08/18 09:20:24;;;;;;;8.23;7.40;;;;;;;-147.16;100.00;58666.56;7396672;19;20382;-68
2023/08/18 09:22:57;;;;;;;8.25;7.45;;;;;;;-147.16;100.00;58666.56;7395233;19;20368;-68
2023/08/18 09:25:25;;;;;;;8.20;7.40;;;;;;;-147.16;100.00;58666.56;7395792;19;20018;-68
2023/08/18 09:27:54;;;;;;;8.93;8.05;;;;;;;-147.16;100.00;58666.56;7397367;19;20031;-68
2023/08/18 09:30:22;;;;;;;7.90;7.00;;;;;;;-147.16;100.00;58666.56;7397615;19;20014;-68
2023/08/18 09:32:54;;;;;;;7.68;6.97;;;;;;;-147.16;100.00;58666.56;7396472;19;20078;-68
2023/08/18 09:35:24;;;;;;;8.40;7.60;;;;;;;-147.16;100.00;58666.56;7396335;19;20350;-68
2023/08/18 09:37:58;;;;;;;8.40;7.70;;;;;;;-147.16;100.00;58666.56;7396758;19;20010;-68
2023/08/18 09:40:27;;;;;;;14.13;8.35;;;;;;;-147.16;100.00;58666.56;7397360;19;20029;-68
2023/08/18 09:42:55;;;;;;;9.15;8.10;;;;;;;-147.16;100.00;58666.56;7392598;19;20014;-68
2023/08/18 09:45:26;;;;;;;8.45;7.75;;;;;;;-147.16;100.00;58666.56;7395986;19;20019;-68
2023/08/18 09:47:59;;;;;;;9.65;8.18;;;;;;;-147.16;100.00;58666.56;7395976;19;20011;-68
2023/08/18 09:50:28;;;;;;;8.57;7.78;;;;;;;-147.16;100.00;58666.56;7397082;19;20011;-68
2023/08/18 09:53:00;;;;;;;8.30;7.60;;;;;;;-147.16;100.00;58666.56;7394787;19;20014;-68
2023/08/18 09:55:34;;;;;;;8.05;7.25;;;;;;;-147.16;100.00;58666.56;7396276;19;20074;-69
2023/08/18 09:58:09;;;;;;;8.00;6.75;;;;;;;-147.16;100.00;58666.56;7394428;19;20019;-68
2023/08/18 10:00:41;;;;;;;6.93;6.22;;;;;;;-147.16;100.00;58666.56;7396294;19;20082;-68
2023/08/18 10:03:16;;;;;;;6.50;5.90;;;;;;;-147.16;100.00;58666.56;7394816;19;20043;-68
2023/08/18 10:05:46;;;;;;;5.90;5.38;;;;;;;-147.16;100.00;58666.56;7396167;19;20015;-68
2023/08/18 10:08:15;;;;;;;6.40;5.90;;;;;;;-147.16;100.00;58666.56;7395684;19;20034;-68
2023/08/18 10:10:44;;;;;;;6.72;6.13;;;;;;;-147.16;100.00;58666.56;7393339;19;20039;-68
2023/08/18 10:13:14;;;;;;;8.82;7.28;;;;;;;-147.16;100.00;58666.56;7394776;19;20017;-68
2023/08/18 10:15:44;;;;;;;6.75;5.93;;;;;;;-147.16;100.00;58666.56;7395012;19;20150;-67
2023/08/18 10:18:15;;;;;;;7.38;5.80;;;;;;;-147.16;100.00;58666.56;7392336;19;20011;-67
2023/08/18 10:20:50;;;;;;;11.38;9.15;;;;;;;-147.16;100.00;58666.56;7395196;19;20094;-69
2023/08/18 10:23:19;;;;;;;11.27;8.55;;;;;;;-147.16;100.00;58666.56;7394367;19;20014;-68
2023/08/18 10:25:51;;;;;;;11.85;8.90;;;;;;;-147.16;100.00;58666.56;7393295;19;20071;-72
2023/08/18 10:28:21;;;;;;;9.30;6.18;;;;;;;-147.16;100.00;58666.56;7392600;19;20015;-67
2023/08/18 10:30:53;;;;;;;5.65;5.03;;;;;;;-147.16;100.00;58666.56;7394584;19;20011;-67
2023/08/18 10:33:35;;;;;;;5.50;5.00;;;;;;;-147.16;100.00;58666.56;7394801;19;20007;-68
2023/08/18 10:36:05;;;;;;;6.05;5.45;;;;;;;-147.16;100.00;58666.56;7394128;19;20460;-67
2023/08/18 10:38:39;;;;;;;6.20;5.60;;;;;;;-147.16;100.00;58666.56;7394742;19;20074;-67
2023/08/18 10:41:07;;;;;;;;;;;;;;;-147.16;100.00;58666.56;7395765;19;20017;-67
2023/08/18 10:43:45;;;;;;;6.35;5.53;;;;;;;-147.16;100.00;58666.56;7393384;19;19918;-67
2023/08/18 10:46:14;;;;;;;4.68;4.22;;;;;;;-147.16;100.00;58666.56;7394427;19;20007;-67
2023/08/18 10:48:46;;;;;;;5.88;4.85;;;;;;;-147.16;100.00;58666.56;7394545;19;20010;-68
2023/08/18 10:51:21;;;;;;;6.35;4.80;;;;;;;-147.16;100.00;58666.56;7394881;19;20011;-68
2023/08/18 10:53:52;;;;;;;4.95;4.55;;;;;;;-147.16;100.00;58666.56;7393658;19;20006;-67
2023/08/18 10:56:24;;;;;;;6.10;4.55;;;;;;;-147.16;100.00;58666.56;7396340;19;20010;-67
2023/08/18 10:58:53;;;;;;;5.00;4.55;;;;;;;-147.16;100.00;58666.56;7401551;19;20086;-68
2023/08/18 11:01:23;;;;;;;6.57;5.47;;;;;;;-147.16;100.00;58666.56;7401615;19;20490;-68
2023/08/18 11:03:55;;;;;;;6.20;5.55;;;;;;;-147.16;100.00;58666.56;7398522;19;20023;-67
2023/08/18 11:06:26;;;;;;;8.80;6.70;;;;;;;-147.16;100.00;58666.56;7401553;19;20032;-69
2023/08/18 11:08:55;;;;;;;7.05;6.07;;;;;;;-147.16;100.00;58666.56;7398486;19;20014;-67